sensor_id;sensor_type;location;lat;lon;timestamp;temperature;humidity
55064;DHT22;40963;52.168;21.296;2023-02-26T00:02:24;1.30;99.90
55064;DHT22;40963;52.168;21.296;2023-02-26T00:04:49;1.20;99.90
55064;DHT22;40963;52.168;21.296;2023-02-26T00:07:15;1.20;99.90
55064;DHT22;40963;52.168;21.296;2023-02-26T00:09:41;1.20;99.90
55064;DHT22;40963;52.168;21.296;2023-02-26T00:12:10;1.10;99.90
55064;DHT22;40963;52.168;21.296;2023-02-26T00:14:36;1.20;99.90
55064;DHT22;40963;52.168;21.296;2023-02-26T00:19:56;1.10;99.90
55064;DHT22;40963;52.168;21.296;2023-02-26T00:22:22;1.10;99.90
55064;DHT22;40963;52.168;21.296;2023-02-26T00:24:48;1.00;99.90
55064;DHT22;40963;52.168;21.296;2023-02-26T00:27:14;1.00;99.90
55064;DHT22;40963;52.168;21.296;2023-02-26T00:29:40;1.00;99.90
55064;DHT22;40963;52.168;21.296;2023-02-26T00:32:06;0.90;99.90
55064;DHT22;40963;52.168;21.296;2023-02-26T00:34:32;0.90;99.90
55064;DHT22;40963;52.168;21.296;2023-02-26T00:42:12;0.90;99.90
55064;DHT22;40963;52.168;21.296;2023-02-26T00:44:38;0.90;99.90
55064;DHT22;40963;52.168;21.296;2023-02-26T00:47:08;0.90;99.90
55064;DHT22;40963;52.168;21.296;2023-02-26T00:55:02;0.80;99.90
55064;DHT22;40963;52.168;21.296;2023-02-26T00:57:28;0.80;99.90
55064;DHT22;40963;52.168;21.296;2023-02-26T00:59:53;0.80;99.90
55064;DHT22;40963;52.168;21.296;2023-02-26T01:02:19;0.70;99.90
55064;DHT22;40963;52.168;21.296;2023-02-26T01:04:45;0.70;99.90
55064;DHT22;40963;52.168;21.296;2023-02-26T01:07:13;0.70;99.90
55064;DHT22;40963;52.168;21.296;2023-02-26T01:09:39;0.70;99.90
55064;DHT22;40963;52.168;21.296;2023-02-26T01:12:10;0.60;99.90
55064;DHT22;40963;52.168;21.296;2023-02-26T01:14:39;0.60;99.90
55064;DHT22;40963;52.168;21.296;2023-02-26T01:17:17;0.60;99.90
55064;DHT22;40963;52.168;21.296;2023-02-26T01:19:53;0.60;99.90
55064;DHT22;40963;52.168;21.296;2023-02-26T01:22:32;0.60;99.90
55064;DHT22;40963;52.168;21.296;2023-02-26T01:25:12;0.60;99.90
55064;DHT22;40963;52.168;21.296;2023-02-26T01:27:39;0.60;99.90
55064;DHT22;40963;52.168;21.296;2023-02-26T01:30:06;0.60;99.90
55064;DHT22;40963;52.168;21.296;2023-02-26T01:38:04;0.50;99.90
55064;DHT22;40963;52.168;21.296;2023-02-26T01:43:14;0.60;99.90
55064;DHT22;40963;52.168;21.296;2023-02-26T01:46:02;0.60;99.90
55064;DHT22;40963;52.168;21.296;2023-02-26T01:48:49;0.60;99.90
55064;DHT22;40963;52.168;21.296;2023-02-26T01:51:15;0.60;99.90
55064;DHT22;40963;52.168;21.296;2023-02-26T01:53:41;0.60;99.90
55064;DHT22;40963;52.168;21.296;2023-02-26T01:56:17;0.60;99.90
55064;DHT22;40963;52.168;21.296;2023-02-26T01:58:45;0.60;99.90
55064;DHT22;40963;52.168;21.296;2023-02-26T02:01:13;0.50;99.90
55064;DHT22;40963;52.168;21.296;2023-02-26T02:03:41;0.50;99.90
55064;DHT22;40963;52.168;21.296;2023-02-26T02:06:10;0.50;99.90
55064;DHT22;40963;52.168;21.296;2023-02-26T02:08:39;0.60;99.90
55064;DHT22;40963;52.168;21.296;2023-02-26T02:11:07;0.50;99.90
55064;DHT22;40963;52.168;21.296;2023-02-26T02:16:36;0.60;99.90
55064;DHT22;40963;52.168;21.296;2023-02-26T02:19:38;0.50;99.90
55064;DHT22;40963;52.168;21.296;2023-02-26T02:22:32;0.50;99.90
55064;DHT22;40963;52.168;21.296;2023-02-26T02:25:09;0.50;99.90
55064;DHT22;40963;52.168;21.296;2023-02-26T02:33:59;0.50;99.90
55064;DHT22;40963;52.168;21.296;2023-02-26T02:36:57;0.50;99.90
55064;DHT22;40963;52.168;21.296;2023-02-26T02:39:41;0.50;99.90
55064;DHT22;40963;52.168;21.296;2023-02-26T02:42:18;0.40;99.90
55064;DHT22;40963;52.168;21.296;2023-02-26T02:44:48;0.50;99.90
55064;DHT22;40963;52.168;21.296;2023-02-26T02:47:16;0.40;99.90
55064;DHT22;40963;52.168;21.296;2023-02-26T02:49:47;0.40;99.90
55064;DHT22;40963;52.168;21.296;2023-02-26T02:54:46;0.40;99.90
55064;DHT22;40963;52.168;21.296;2023-02-26T02:57:24;0.40;99.90
55064;DHT22;40963;52.168;21.296;2023-02-26T02:59:58;0.30;99.90
55064;DHT22;40963;52.168;21.296;2023-02-26T03:05:09;0.30;99.90
55064;DHT22;40963;52.168;21.296;2023-02-26T03:08:21;0.30;99.90
55064;DHT22;40963;52.168;21.296;2023-02-26T03:10:27;0.30;99.90
55064;DHT22;40963;52.168;21.296;2023-02-26T03:12:53;0.30;99.90
55064;DHT22;40963;52.168;21.296;2023-02-26T03:15:38;0.30;99.90
55064;DHT22;40963;52.168;21.296;2023-02-26T03:21:11;0.30;99.90
55064;DHT22;40963;52.168;21.296;2023-02-26T03:26:28;0.30;99.90
55064;DHT22;40963;52.168;21.296;2023-02-26T03:28:58;0.30;99.90
55064;DHT22;40963;52.168;21.296;2023-02-26T03:31:31;0.30;99.90
55064;DHT22;40963;52.168;21.296;2023-02-26T03:34:18;0.30;99.90
55064;DHT22;40963;52.168;21.296;2023-02-26T03:36:56;0.40;99.90
55064;DHT22;40963;52.168;21.296;2023-02-26T03:39:30;0.40;99.90
55064;DHT22;40963;52.168;21.296;2023-02-26T03:42:42;0.40;99.90
55064;DHT22;40963;52.168;21.296;2023-02-26T03:45:04;0.40;99.90
55064;DHT22;40963;52.168;21.296;2023-02-26T03:47:33;0.40;99.90
55064;DHT22;40963;52.168;21.296;2023-02-26T03:50:26;0.40;99.90
55064;DHT22;40963;52.168;21.296;2023-02-26T03:52:51;0.40;99.90
55064;DHT22;40963;52.168;21.296;2023-02-26T03:55:44;0.50;99.90
55064;DHT22;40963;52.168;21.296;2023-02-26T03:58:11;0.50;99.90
55064;DHT22;40963;52.168;21.296;2023-02-26T04:00:40;0.50;99.90
55064;DHT22;40963;52.168;21.296;2023-02-26T04:05:46;0.50;99.90
55064;DHT22;40963;52.168;21.296;2023-02-26T04:08:12;0.50;99.90
55064;DHT22;40963;52.168;21.296;2023-02-26T04:11:04;0.60;99.90
55064;DHT22;40963;52.168;21.296;2023-02-26T04:13:28;0.60;99.90
55064;DHT22;40963;52.168;21.296;2023-02-26T04:15:53;0.60;99.90
55064;DHT22;40963;52.168;21.296;2023-02-26T04:18:19;0.60;99.90
55064;DHT22;40963;52.168;21.296;2023-02-26T04:20:45;0.60;99.90
55064;DHT22;40963;52.168;21.296;2023-02-26T04:23:10;0.60;99.90
55064;DHT22;40963;52.168;21.296;2023-02-26T04:25:36;0.60;99.90
55064;DHT22;40963;52.168;21.296;2023-02-26T04:28:02;0.50;99.90
55064;DHT22;40963;52.168;21.296;2023-02-26T04:30:27;0.50;99.90
55064;DHT22;40963;52.168;21.296;2023-02-26T04:32:53;0.50;99.90
55064;DHT22;40963;52.168;21.296;2023-02-26T04:35:20;0.40;99.90
55064;DHT22;40963;52.168;21.296;2023-02-26T04:37:45;0.40;99.90
55064;DHT22;40963;52.168;21.296;2023-02-26T04:40:11;0.40;99.90
55064;DHT22;40963;52.168;21.296;2023-02-26T04:42:37;0.30;99.90
55064;DHT22;40963;52.168;21.296;2023-02-26T04:45:03;0.40;99.90
55064;DHT22;40963;52.168;21.296;2023-02-26T04:47:29;0.30;99.90
55064;DHT22;40963;52.168;21.296;2023-02-26T04:49:55;0.30;99.90
55064;DHT22;40963;52.168;21.296;2023-02-26T04:52:20;0.30;99.90
55064;DHT22;40963;52.168;21.296;2023-02-26T04:54:46;0.30;99.90
55064;DHT22;40963;52.168;21.296;2023-02-26T04:57:12;0.20;99.90
55064;DHT22;40963;52.168;21.296;2023-02-26T04:59:37;0.20;99.90
55064;DHT22;40963;52.168;21.296;2023-02-26T05:02:04;0.20;99.90
55064;DHT22;40963;52.168;21.296;2023-02-26T05:04:30;0.20;99.90
55064;DHT22;40963;52.168;21.296;2023-02-26T05:06:56;0.20;99.90
55064;DHT22;40963;52.168;21.296;2023-02-26T05:09:21;0.20;99.90
55064;DHT22;40963;52.168;21.296;2023-02-26T05:11:47;0.20;99.90
55064;DHT22;40963;52.168;21.296;2023-02-26T05:14:14;0.20;99.90
55064;DHT22;40963;52.168;21.296;2023-02-26T05:16:40;0.20;99.90
55064;DHT22;40963;52.168;21.296;2023-02-26T05:19:06;0.20;99.90
55064;DHT22;40963;52.168;21.296;2023-02-26T05:21:32;0.20;99.90
55064;DHT22;40963;52.168;21.296;2023-02-26T05:23:58;0.20;99.90
55064;DHT22;40963;52.168;21.296;2023-02-26T05:26:23;0.20;99.90
55064;DHT22;40963;52.168;21.296;2023-02-26T05:28:50;0.20;99.90
55064;DHT22;40963;52.168;21.296;2023-02-26T05:31:16;0.20;99.90
55064;DHT22;40963;52.168;21.296;2023-02-26T05:33:41;0.20;99.90
55064;DHT22;40963;52.168;21.296;2023-02-26T05:36:08;0.20;99.90
55064;DHT22;40963;52.168;21.296;2023-02-26T05:38:33;0.20;99.90
55064;DHT22;40963;52.168;21.296;2023-02-26T05:41:00;0.20;99.90
55064;DHT22;40963;52.168;21.296;2023-02-26T05:43:26;0.20;99.90
55064;DHT22;40963;52.168;21.296;2023-02-26T05:45:53;0.20;99.90
55064;DHT22;40963;52.168;21.296;2023-02-26T05:48:20;0.20;99.90
55064;DHT22;40963;52.168;21.296;2023-02-26T05:50:48;0.20;99.90
55064;DHT22;40963;52.168;21.296;2023-02-26T05:53:14;0.20;99.90
55064;DHT22;40963;52.168;21.296;2023-02-26T05:55:40;0.20;99.90
55064;DHT22;40963;52.168;21.296;2023-02-26T05:58:06;0.20;99.90
55064;DHT22;40963;52.168;21.296;2023-02-26T06:00:31;0.20;99.90
55064;DHT22;40963;52.168;21.296;2023-02-26T06:02:57;0.20;99.90
55064;DHT22;40963;52.168;21.296;2023-02-26T06:05:23;0.10;99.90
55064;DHT22;40963;52.168;21.296;2023-02-26T06:07:49;0.10;99.90
55064;DHT22;40963;52.168;21.296;2023-02-26T06:10:14;0.10;99.90
55064;DHT22;40963;52.168;21.296;2023-02-26T06:12:40;0.20;99.90
55064;DHT22;40963;52.168;21.296;2023-02-26T06:15:07;0.20;99.90
55064;DHT22;40963;52.168;21.296;2023-02-26T06:17:33;0.20;99.90
55064;DHT22;40963;52.168;21.296;2023-02-26T06:19:59;0.20;99.90
55064;DHT22;40963;52.168;21.296;2023-02-26T06:22:25;0.20;99.90
55064;DHT22;40963;52.168;21.296;2023-02-26T06:24:50;0.20;99.90
55064;DHT22;40963;52.168;21.296;2023-02-26T06:27:16;0.20;99.90
55064;DHT22;40963;52.168;21.296;2023-02-26T06:29:42;0.20;99.90
55064;DHT22;40963;52.168;21.296;2023-02-26T06:32:08;0.20;99.90
55064;DHT22;40963;52.168;21.296;2023-02-26T06:34:33;0.20;99.90
55064;DHT22;40963;52.168;21.296;2023-02-26T06:36:59;0.20;99.90
55064;DHT22;40963;52.168;21.296;2023-02-26T06:39:25;0.20;99.90
55064;DHT22;40963;52.168;21.296;2023-02-26T06:41:50;0.10;99.90
55064;DHT22;40963;52.168;21.296;2023-02-26T06:44:16;0.10;99.90
55064;DHT22;40963;52.168;21.296;2023-02-26T06:46:42;0.10;99.90
55064;DHT22;40963;52.168;21.296;2023-02-26T06:49:07;0.10;99.90
55064;DHT22;40963;52.168;21.296;2023-02-26T06:51:33;0.00;99.90
55064;DHT22;40963;52.168;21.296;2023-02-26T06:53:59;0.00;99.90
55064;DHT22;40963;52.168;21.296;2023-02-26T06:56:25;-0.10;99.90
55064;DHT22;40963;52.168;21.296;2023-02-26T06:58:51;-0.10;99.90
55064;DHT22;40963;52.168;21.296;2023-02-26T07:01:17;-0.10;99.90
55064;DHT22;40963;52.168;21.296;2023-02-26T07:03:43;-0.20;99.90
55064;DHT22;40963;52.168;21.296;2023-02-26T07:06:10;-0.20;99.90
55064;DHT22;40963;52.168;21.296;2023-02-26T07:08:36;-0.20;99.90
55064;DHT22;40963;52.168;21.296;2023-02-26T07:11:03;-0.10;99.90
55064;DHT22;40963;52.168;21.296;2023-02-26T07:13:29;-0.10;99.90
55064;DHT22;40963;52.168;21.296;2023-02-26T07:15:54;-0.10;99.90
55064;DHT22;40963;52.168;21.296;2023-02-26T07:18:20;-0.10;99.90
55064;DHT22;40963;52.168;21.296;2023-02-26T07:20:48;-0.10;99.90
55064;DHT22;40963;52.168;21.296;2023-02-26T07:23:14;-0.10;99.90
55064;DHT22;40963;52.168;21.296;2023-02-26T07:25:40;-0.10;99.90
55064;DHT22;40963;52.168;21.296;2023-02-26T07:28:06;-0.20;99.90
55064;DHT22;40963;52.168;21.296;2023-02-26T07:30:32;-0.20;99.90
55064;DHT22;40963;52.168;21.296;2023-02-26T07:32:58;-0.20;99.90
55064;DHT22;40963;52.168;21.296;2023-02-26T07:35:24;-0.10;99.90
55064;DHT22;40963;52.168;21.296;2023-02-26T07:37:50;-0.10;99.90
55064;DHT22;40963;52.168;21.296;2023-02-26T07:40:17;-0.10;99.90
55064;DHT22;40963;52.168;21.296;2023-02-26T07:42:43;-0.10;99.90
55064;DHT22;40963;52.168;21.296;2023-02-26T07:45:09;-0.10;99.90
55064;DHT22;40963;52.168;21.296;2023-02-26T07:47:36;0.00;99.90
55064;DHT22;40963;52.168;21.296;2023-02-26T07:50:02;0.00;99.90
55064;DHT22;40963;52.168;21.296;2023-02-26T07:52:28;0.00;99.90
55064;DHT22;40963;52.168;21.296;2023-02-26T07:54:53;0.10;99.90
55064;DHT22;40963;52.168;21.296;2023-02-26T07:57:19;0.10;99.90
55064;DHT22;40963;52.168;21.296;2023-02-26T07:59:45;0.20;99.90
55064;DHT22;40963;52.168;21.296;2023-02-26T08:02:11;0.20;99.90
55064;DHT22;40963;52.168;21.296;2023-02-26T08:04:38;0.30;99.90
55064;DHT22;40963;52.168;21.296;2023-02-26T08:07:03;0.20;99.90
55064;DHT22;40963;52.168;21.296;2023-02-26T08:09:29;0.30;99.90
55064;DHT22;40963;52.168;21.296;2023-02-26T08:11:55;0.30;99.90
55064;DHT22;40963;52.168;21.296;2023-02-26T08:14:21;0.30;99.90
55064;DHT22;40963;52.168;21.296;2023-02-26T08:16:47;0.30;99.90
55064;DHT22;40963;52.168;21.296;2023-02-26T08:19:13;0.30;99.90
55064;DHT22;40963;52.168;21.296;2023-02-26T08:21:39;0.30;99.90
55064;DHT22;40963;52.168;21.296;2023-02-26T08:24:05;0.40;99.90
55064;DHT22;40963;52.168;21.296;2023-02-26T08:26:33;0.40;99.90
55064;DHT22;40963;52.168;21.296;2023-02-26T08:28:59;0.40;99.90
55064;DHT22;40963;52.168;21.296;2023-02-26T08:31:25;0.50;99.90
55064;DHT22;40963;52.168;21.296;2023-02-26T08:33:52;0.50;99.90
55064;DHT22;40963;52.168;21.296;2023-02-26T08:36:18;0.50;99.90
55064;DHT22;40963;52.168;21.296;2023-02-26T08:38:46;0.50;99.90
55064;DHT22;40963;52.168;21.296;2023-02-26T08:41:12;0.50;99.90
55064;DHT22;40963;52.168;21.296;2023-02-26T08:43:37;0.50;99.90
55064;DHT22;40963;52.168;21.296;2023-02-26T08:46:03;0.60;99.90
55064;DHT22;40963;52.168;21.296;2023-02-26T08:48:29;0.60;99.70
55064;DHT22;40963;52.168;21.296;2023-02-26T08:50:54;0.60;99.80
55064;DHT22;40963;52.168;21.296;2023-02-26T08:53:20;0.60;99.90
55064;DHT22;40963;52.168;21.296;2023-02-26T08:55:50;0.60;99.80
55064;DHT22;40963;52.168;21.296;2023-02-26T08:58:16;0.60;99.70
55064;DHT22;40963;52.168;21.296;2023-02-26T09:00:43;0.60;99.70
55064;DHT22;40963;52.168;21.296;2023-02-26T09:03:09;0.60;99.50
55064;DHT22;40963;52.168;21.296;2023-02-26T09:05:34;0.60;99.90
55064;DHT22;40963;52.168;21.296;2023-02-26T09:08:00;0.60;99.90
55064;DHT22;40963;52.168;21.296;2023-02-26T09:10:26;0.60;99.90
55064;DHT22;40963;52.168;21.296;2023-02-26T09:12:52;0.60;99.90
55064;DHT22;40963;52.168;21.296;2023-02-26T09:15:17;0.60;99.90
55064;DHT22;40963;52.168;21.296;2023-02-26T09:17:44;0.60;99.90
55064;DHT22;40963;52.168;21.296;2023-02-26T09:20:10;0.60;99.90
55064;DHT22;40963;52.168;21.296;2023-02-26T09:22:36;0.50;99.90
55064;DHT22;40963;52.168;21.296;2023-02-26T09:25:03;0.50;99.90
55064;DHT22;40963;52.168;21.296;2023-02-26T09:27:29;0.50;99.90
55064;DHT22;40963;52.168;21.296;2023-02-26T09:29:54;0.50;99.90
55064;DHT22;40963;52.168;21.296;2023-02-26T09:32:20;0.50;99.90
55064;DHT22;40963;52.168;21.296;2023-02-26T09:34:46;0.50;99.90
55064;DHT22;40963;52.168;21.296;2023-02-26T09:37:11;0.50;99.90
55064;DHT22;40963;52.168;21.296;2023-02-26T09:39:37;0.50;99.90
55064;DHT22;40963;52.168;21.296;2023-02-26T09:44:47;0.50;99.90
55064;DHT22;40963;52.168;21.296;2023-02-26T09:47:17;0.50;99.90
55064;DHT22;40963;52.168;21.296;2023-02-26T09:57:43;0.60;99.50
55064;DHT22;40963;52.168;21.296;2023-02-26T10:08:43;0.70;99.90
55064;DHT22;40963;52.168;21.296;2023-02-26T10:14:11;0.70;99.90
55064;DHT22;40963;52.168;21.296;2023-02-26T10:16:42;0.70;99.90
55064;DHT22;40963;52.168;21.296;2023-02-26T10:19:15;0.70;99.70
55064;DHT22;40963;52.168;21.296;2023-02-26T10:21:46;0.60;99.30
55064;DHT22;40963;52.168;21.296;2023-02-26T10:26:53;0.60;99.30
55064;DHT22;40963;52.168;21.296;2023-02-26T10:34:57;0.50;99.20
55064;DHT22;40963;52.168;21.296;2023-02-26T10:37:54;0.50;99.50
55064;DHT22;40963;52.168;21.296;2023-02-26T10:40:35;0.60;99.80
55064;DHT22;40963;52.168;21.296;2023-02-26T10:43:20;0.60;99.90
55064;DHT22;40963;52.168;21.296;2023-02-26T10:51:23;0.60;99.90
55064;DHT22;40963;52.168;21.296;2023-02-26T10:53:59;0.50;99.90
55064;DHT22;40963;52.168;21.296;2023-02-26T10:56:29;0.50;99.90
55064;DHT22;40963;52.168;21.296;2023-02-26T10:58:55;0.60;99.90
55064;DHT22;40963;52.168;21.296;2023-02-26T11:01:24;0.60;99.90
55064;DHT22;40963;52.168;21.296;2023-02-26T11:04:17;0.60;99.90
55064;DHT22;40963;52.168;21.296;2023-02-26T11:07:01;0.60;99.90
55064;DHT22;40963;52.168;21.296;2023-02-26T11:09:41;0.60;99.90
55064;DHT22;40963;52.168;21.296;2023-02-26T11:12:12;0.60;99.90
55064;DHT22;40963;52.168;21.296;2023-02-26T11:14:38;0.60;99.90
55064;DHT22;40963;52.168;21.296;2023-02-26T11:17:16;0.60;99.90
55064;DHT22;40963;52.168;21.296;2023-02-26T11:19:49;0.60;99.90
55064;DHT22;40963;52.168;21.296;2023-02-26T11:22:17;0.60;99.90
55064;DHT22;40963;52.168;21.296;2023-02-26T11:24:46;0.60;99.90
55064;DHT22;40963;52.168;21.296;2023-02-26T11:27:25;0.70;99.90
55064;DHT22;40963;52.168;21.296;2023-02-26T11:30:15;0.70;99.90
55064;DHT22;40963;52.168;21.296;2023-02-26T11:32:43;0.70;99.90
55064;DHT22;40963;52.168;21.296;2023-02-26T11:35:14;0.60;99.90
55064;DHT22;40963;52.168;21.296;2023-02-26T11:37:46;0.60;99.90
55064;DHT22;40963;52.168;21.296;2023-02-26T11:40:37;0.70;99.90
55064;DHT22;40963;52.168;21.296;2023-02-26T11:43:05;0.70;99.90
55064;DHT22;40963;52.168;21.296;2023-02-26T11:45:34;0.70;99.90
55064;DHT22;40963;52.168;21.296;2023-02-26T11:48:04;0.70;99.90
55064;DHT22;40963;52.168;21.296;2023-02-26T11:50:45;0.70;99.90
55064;DHT22;40963;52.168;21.296;2023-02-26T11:53:23;0.70;99.90
55064;DHT22;40963;52.168;21.296;2023-02-26T11:55:59;0.80;99.90
55064;DHT22;40963;52.168;21.296;2023-02-26T11:58:25;0.80;99.90
55064;DHT22;40963;52.168;21.296;2023-02-26T12:00:53;0.80;99.90
55064;DHT22;40963;52.168;21.296;2023-02-26T12:03:22;0.90;99.80
55064;DHT22;40963;52.168;21.296;2023-02-26T12:05:49;0.90;99.00
55064;DHT22;40963;52.168;21.296;2023-02-26T12:16:36;0.90;97.40
55064;DHT22;40963;52.168;21.296;2023-02-26T12:19:16;1.00;97.60
55064;DHT22;40963;52.168;21.296;2023-02-26T12:33:29;0.90;95.10
55064;DHT22;40963;52.168;21.296;2023-02-26T12:43:53;1.00;95.60
55064;DHT22;40963;52.168;21.296;2023-02-26T12:46:41;1.00;94.90
55064;DHT22;40963;52.168;21.296;2023-02-26T12:55:05;1.00;94.10
55064;DHT22;40963;52.168;21.296;2023-02-26T12:57:53;1.00;94.40
55064;DHT22;40963;52.168;21.296;2023-02-26T13:06:04;1.00;94.70
55064;DHT22;40963;52.168;21.296;2023-02-26T13:11:17;1.00;95.20
55064;DHT22;40963;52.168;21.296;2023-02-26T13:13:56;1.00;95.60
55064;DHT22;40963;52.168;21.296;2023-02-26T13:19:44;1.10;96.10
55064;DHT22;40963;52.168;21.296;2023-02-26T13:22:32;1.10;96.20
55064;DHT22;40963;52.168;21.296;2023-02-26T13:27:45;1.20;96.20
55064;DHT22;40963;52.168;21.296;2023-02-26T13:30:22;1.20;96.30
55064;DHT22;40963;52.168;21.296;2023-02-26T13:32:53;1.30;96.90
55064;DHT22;40963;52.168;21.296;2023-02-26T13:35:39;1.30;96.70
55064;DHT22;40963;52.168;21.296;2023-02-26T13:43:59;1.30;95.90
55064;DHT22;40963;52.168;21.296;2023-02-26T13:52:29;1.30;95.80
55064;DHT22;40963;52.168;21.296;2023-02-26T13:54:57;1.20;95.60
55064;DHT22;40963;52.168;21.296;2023-02-26T13:57:25;1.20;95.70
55064;DHT22;40963;52.168;21.296;2023-02-26T14:00:21;1.20;95.70
55064;DHT22;40963;52.168;21.296;2023-02-26T14:02:54;1.20;95.00
55064;DHT22;40963;52.168;21.296;2023-02-26T14:05:35;1.20;95.20
55064;DHT22;40963;52.168;21.296;2023-02-26T14:10:49;1.20;93.90
55064;DHT22;40963;52.168;21.296;2023-02-26T14:16:29;1.20;93.40
55064;DHT22;40963;52.168;21.296;2023-02-26T14:19:22;1.20;93.20
55064;DHT22;40963;52.168;21.296;2023-02-26T14:21:54;1.30;93.00
55064;DHT22;40963;52.168;21.296;2023-02-26T14:24:53;1.30;92.70
55064;DHT22;40963;52.168;21.296;2023-02-26T14:30:15;1.30;91.70
55064;DHT22;40963;52.168;21.296;2023-02-26T14:35:26;1.30;91.80
55064;DHT22;40963;52.168;21.296;2023-02-26T14:38:02;1.30;91.30
55064;DHT22;40963;52.168;21.296;2023-02-26T14:40:37;1.40;91.00
55064;DHT22;40963;52.168;21.296;2023-02-26T14:43:04;1.30;91.10
55064;DHT22;40963;52.168;21.296;2023-02-26T14:45:35;1.30;91.10
55064;DHT22;40963;52.168;21.296;2023-02-26T14:48:10;1.40;90.90
55064;DHT22;40963;52.168;21.296;2023-02-26T15:10:40;1.40;90.90
55064;DHT22;40963;52.168;21.296;2023-02-26T15:16:06;1.40;91.10
55064;DHT22;40963;52.168;21.296;2023-02-26T15:18:58;1.40;91.10
55064;DHT22;40963;52.168;21.296;2023-02-26T15:24:40;1.40;91.30
55064;DHT22;40963;52.168;21.296;2023-02-26T15:27:08;1.40;91.60
55064;DHT22;40963;52.168;21.296;2023-02-26T15:29:38;1.40;91.50
55064;DHT22;40963;52.168;21.296;2023-02-26T15:32:15;1.40;91.70
55064;DHT22;40963;52.168;21.296;2023-02-26T15:34:45;1.40;91.80
55064;DHT22;40963;52.168;21.296;2023-02-26T15:37:24;1.40;92.10
55064;DHT22;40963;52.168;21.296;2023-02-26T15:39:51;1.40;91.90
55064;DHT22;40963;52.168;21.296;2023-02-26T15:42:21;1.40;91.80
55064;DHT22;40963;52.168;21.296;2023-02-26T15:44:50;1.30;92.00
55064;DHT22;40963;52.168;21.296;2023-02-26T15:47:17;1.40;92.10
55064;DHT22;40963;52.168;21.296;2023-02-26T15:49:46;1.40;92.40
55064;DHT22;40963;52.168;21.296;2023-02-26T15:52:18;1.30;92.00
55064;DHT22;40963;52.168;21.296;2023-02-26T15:54:54;1.30;92.00
55064;DHT22;40963;52.168;21.296;2023-02-26T15:57:22;1.30;92.00
55064;DHT22;40963;52.168;21.296;2023-02-26T15:59:51;1.30;92.00
55064;DHT22;40963;52.168;21.296;2023-02-26T16:02:25;1.30;92.00
55064;DHT22;40963;52.168;21.296;2023-02-26T16:04:51;1.20;92.20
55064;DHT22;40963;52.168;21.296;2023-02-26T16:07:18;1.20;92.40
55064;DHT22;40963;52.168;21.296;2023-02-26T16:09:46;1.20;92.80
55064;DHT22;40963;52.168;21.296;2023-02-26T16:12:33;1.20;93.20
55064;DHT22;40963;52.168;21.296;2023-02-26T16:15:03;1.10;93.10
55064;DHT22;40963;52.168;21.296;2023-02-26T16:17:33;1.10;93.50
55064;DHT22;40963;52.168;21.296;2023-02-26T16:20:03;1.00;93.80
55064;DHT22;40963;52.168;21.296;2023-02-26T16:22:34;1.00;94.00
55064;DHT22;40963;52.168;21.296;2023-02-26T16:25:14;0.90;94.20
55064;DHT22;40963;52.168;21.296;2023-02-26T16:27:42;0.90;94.60
55064;DHT22;40963;52.168;21.296;2023-02-26T16:30:16;0.80;95.10
55064;DHT22;40963;52.168;21.296;2023-02-26T16:32:43;0.80;95.80
55064;DHT22;40963;52.168;21.296;2023-02-26T16:35:19;0.90;96.40
55064;DHT22;40963;52.168;21.296;2023-02-26T16:37:50;0.80;96.90
55064;DHT22;40963;52.168;21.296;2023-02-26T16:40:32;0.80;97.40
55064;DHT22;40963;52.168;21.296;2023-02-26T16:45:50;0.80;98.20
55064;DHT22;40963;52.168;21.296;2023-02-26T16:49:09;0.80;98.50
55064;DHT22;40963;52.168;21.296;2023-02-26T16:51:22;0.80;99.00
55064;DHT22;40963;52.168;21.296;2023-02-26T16:56:30;0.70;99.50
55064;DHT22;40963;52.168;21.296;2023-02-26T16:59:01;0.70;99.70
55064;DHT22;40963;52.168;21.296;2023-02-26T17:01:27;0.60;99.90
55064;DHT22;40963;52.168;21.296;2023-02-26T17:03:59;0.60;99.90
55064;DHT22;40963;52.168;21.296;2023-02-26T17:06:26;0.60;99.90
55064;DHT22;40963;52.168;21.296;2023-02-26T17:08:59;0.60;99.90
55064;DHT22;40963;52.168;21.296;2023-02-26T17:16:34;0.50;99.90
55064;DHT22;40963;52.168;21.296;2023-02-26T17:19:00;0.50;99.90
55064;DHT22;40963;52.168;21.296;2023-02-26T17:21:27;0.40;99.90
55064;DHT22;40963;52.168;21.296;2023-02-26T17:23:53;0.40;99.90
55064;DHT22;40963;52.168;21.296;2023-02-26T17:26:19;0.40;99.90
55064;DHT22;40963;52.168;21.296;2023-02-26T17:28:45;0.40;99.90
55064;DHT22;40963;52.168;21.296;2023-02-26T17:31:11;0.40;99.90
55064;DHT22;40963;52.168;21.296;2023-02-26T17:33:40;0.40;99.90
55064;DHT22;40963;52.168;21.296;2023-02-26T17:36:06;0.40;99.90
55064;DHT22;40963;52.168;21.296;2023-02-26T17:38:32;0.30;99.90
55064;DHT22;40963;52.168;21.296;2023-02-26T17:40:58;0.30;99.90
55064;DHT22;40963;52.168;21.296;2023-02-26T17:43:25;0.30;99.90
55064;DHT22;40963;52.168;21.296;2023-02-26T17:45:51;0.30;99.90
55064;DHT22;40963;52.168;21.296;2023-02-26T17:48:17;0.30;99.90
55064;DHT22;40963;52.168;21.296;2023-02-26T17:50:54;0.30;99.90
55064;DHT22;40963;52.168;21.296;2023-02-26T17:53:21;0.20;99.90
55064;DHT22;40963;52.168;21.296;2023-02-26T17:55:49;0.20;99.90
55064;DHT22;40963;52.168;21.296;2023-02-26T17:58:32;0.20;99.90
55064;DHT22;40963;52.168;21.296;2023-02-26T18:01:01;0.20;99.90
55064;DHT22;40963;52.168;21.296;2023-02-26T18:03:28;0.20;99.90
55064;DHT22;40963;52.168;21.296;2023-02-26T18:05:55;0.20;99.90
55064;DHT22;40963;52.168;21.296;2023-02-26T18:08:24;0.30;99.90
55064;DHT22;40963;52.168;21.296;2023-02-26T18:10:51;0.20;99.90
55064;DHT22;40963;52.168;21.296;2023-02-26T18:13:17;0.20;99.90
55064;DHT22;40963;52.168;21.296;2023-02-26T18:15:43;0.20;99.90
55064;DHT22;40963;52.168;21.296;2023-02-26T18:18:13;0.20;99.90
55064;DHT22;40963;52.168;21.296;2023-02-26T18:20:39;0.20;99.90
55064;DHT22;40963;52.168;21.296;2023-02-26T18:23:05;0.20;99.90
55064;DHT22;40963;52.168;21.296;2023-02-26T18:25:37;0.30;99.90
55064;DHT22;40963;52.168;21.296;2023-02-26T18:28:04;0.30;99.90
55064;DHT22;40963;52.168;21.296;2023-02-26T18:30:34;0.30;99.90
55064;DHT22;40963;52.168;21.296;2023-02-26T18:33:02;0.30;99.90
55064;DHT22;40963;52.168;21.296;2023-02-26T18:35:29;0.40;99.90
55064;DHT22;40963;52.168;21.296;2023-02-26T18:37:56;0.40;99.90
55064;DHT22;40963;52.168;21.296;2023-02-26T18:40:23;0.40;99.90
55064;DHT22;40963;52.168;21.296;2023-02-26T18:42:49;0.40;99.90
55064;DHT22;40963;52.168;21.296;2023-02-26T18:45:16;0.40;99.90
55064;DHT22;40963;52.168;21.296;2023-02-26T18:47:42;0.40;99.90
55064;DHT22;40963;52.168;21.296;2023-02-26T18:50:12;0.40;99.90
55064;DHT22;40963;52.168;21.296;2023-02-26T18:52:38;0.40;99.90
55064;DHT22;40963;52.168;21.296;2023-02-26T18:55:04;0.40;99.90
55064;DHT22;40963;52.168;21.296;2023-02-26T18:57:30;0.40;99.90